Terminal Aerodrome Forecast
Issued by NWS

Home | Current Version | Previous Version | Text Only | Print | Product List | Glossary On
Versions: 1 2 3 4 5 6 7 8 9 10 11 12 13 14 15 16 17
495
FTUS46 KSEW 072341
TAFHQM
TAF
KHQM 072341Z 0800/0824 06008KT P6SM SCT050 SCT250
      TEMPO 0800/0802 BKN050 BKN250
     FM080600 04008KT P6SM VCFG SCT250
     FM081200 04008KT 4SM MIFG SKC
      TEMPO 0813/0817 2SM MIFG
     FM081900 07010KT P6SM SKC=

USA.gov is the U.S. government's official web portal to all federal, state and local government web resources and services.